Time;durP1;ratioP1;P1;durP2;ratioP2;P2;SDS_P1;SDS_P2;PMS_P1;PMS_P2;Temp;Humidity;BMP_temperature;BMP_pressure;BME280_temperature;BME280_humidity;BME280_pressure;Samples;Min_cycle;Max_cycle;Signal;HPM_P1;HPM_P2
2022/08/09 00:00:24;;;;;;;3.80;2.10;;;23.80;48.90;;;;;;221134;1265;22557;-59
2022/08/09 00:05:41;;;;;;;5.40;2.20;;;23.80;48.90;;;;;;221064;1264;24261;-60
2022/08/09 00:11:03;;;;;;;3.10;1.90;;;23.80;48.90;;;;;;221155;1265;26254;-60
2022/08/09 00:16:25;;;;;;;4.10;2.10;;;23.80;49.30;;;;;;221022;1265;24881;-59
2022/08/09 00:21:39;;;;;;;3.90;2.10;;;23.80;49.00;;;;;;221178;1265;24208;-60
2022/08/09 00:27:00;;;;;;;4.20;2.20;;;23.80;48.90;;;;;;221141;1265;22547;-59
2022/08/09 00:32:02;;;;;;;6.50;2.60;;;23.80;49.00;;;;;;221439;1262;23278;-61
2022/08/09 00:37:05;;;;;;;4.40;1.90;;;23.80;48.90;;;;;;221688;1262;22535;-59
2022/08/09 00:42:08;;;;;;;4.30;1.80;;;23.80;49.10;;;;;;221191;1265;22532;-59
2022/08/09 00:47:31;;;;;;;4.40;2.20;;;23.70;49.00;;;;;;221263;1262;24208;-58
2022/08/09 00:52:41;;;;;;;3.60;2.00;;;23.70;49.00;;;;;;221291;1262;22547;-59
2022/08/09 00:57:44;;;;;;;3.90;2.30;;;23.70;49.00;;;;;;221377;1261;24091;-59
2022/08/09 01:03:12;;;;;;;5.00;2.10;;;23.70;49.30;;;;;;221536;1262;22689;-60
2022/08/09 01:08:25;;;;;;;4.40;2.20;;;23.70;49.00;;;;;;221404;1261;22686;-59
2022/08/09 01:13:36;;;;;;;4.40;2.20;;;23.70;49.10;;;;;;221509;1262;25323;-60
2022/08/09 01:19:01;;;;;;;6.30;2.10;;;23.70;49.40;;;;;;221461;1261;22611;-59
2022/08/09 01:24:58;;;;;;;4.20;1.90;;;23.70;49.40;;;;;;221540;1262;24205;-59
2022/08/09 01:30:06;;;;;;;3.90;2.00;;;23.60;49.00;;;;;;220559;1265;22704;-60
2022/08/09 01:35:16;;;;;;;3.40;1.80;;;23.70;49.10;;;;;;221329;1265;22710;-60
2022/08/09 01:40:43;;;;;;;4.40;2.60;;;23.70;49.10;;;;;;221162;1262;25302;-60
2022/08/09 01:45:54;;;;;;;4.20;2.10;;;23.60;48.60;;;;;;221294;1262;23200;-60
2022/08/09 01:51:01;;;;;;;3.50;1.90;;;23.70;49.40;;;;;;221498;1262;22593;-58
2022/08/09 01:56:10;;;;;;;3.70;2.20;;;23.60;49.30;;;;;;221399;1262;22688;-59
2022/08/09 02:01:14;;;;;;;3.20;1.90;;;23.60;49.10;;;;;;221507;1262;22553;-59
2022/08/09 02:07:07;;;;;;;4.40;2.10;;;23.60;49.20;;;;;;221300;1265;22551;-59
2022/08/09 02:11:56;;;;;;;5.30;2.00;;;23.60;49.20;;;;;;221194;1262;25296;-59
2022/08/09 02:16:59;;;;;;;3.50;2.00;;;23.60;49.30;;;;;;221213;1262;22547;-60
2022/08/09 02:22:41;;;;;;;3.60;1.70;;;23.50;49.30;;;;;;221391;1262;24024;-60
2022/08/09 02:28:00;;;;;;;4.00;2.10;;;23.50;49.70;;;;;;221158;1265;25415;-60
2022/08/09 02:33:14;;;;;;;3.40;2.00;;;23.50;49.70;;;;;;221354;1262;23902;-60
2022/08/09 02:38:27;;;;;;;5.20;2.20;;;23.50;49.70;;;;;;221148;1262;25289;-60
2022/08/09 02:43:33;;;;;;;3.20;1.90;;;23.50;49.00;;;;;;221215;1261;22532;-60
2022/08/09 02:48:59;;;;;;;3.40;2.10;;;23.50;49.60;;;;;;221466;1261;22603;-59
2022/08/09 02:54:03;;;;;;;4.00;2.20;;;23.50;50.00;;;;;;221504;1262;22547;-60
2022/08/09 02:59:07;;;;;;;4.30;2.20;;;23.40;49.90;;;;;;221429;1262;23304;-60
2022/08/09 03:04:12;;;;;;;4.60;2.10;;;23.40;50.00;;;;;;221294;1262;22799;-59
2022/08/09 03:09:21;;;;;;;2.90;2.10;;;23.40;50.00;;;;;;221116;1262;24204;-58
2022/08/09 03:14:25;;;;;;;4.50;2.00;;;23.40;49.90;;;;;;221377;1261;22541;-60
2022/08/09 03:19:31;;;;;;;3.70;2.00;;;23.40;50.00;;;;;;221380;1261;24205;-59
2022/08/09 03:24:53;;;;;;;3.20;1.80;;;23.30;50.30;;;;;;221379;1262;25360;-59
2022/08/09 03:30:10;;;;;;;2.90;1.60;;;23.30;50.70;;;;;;221253;1262;22707;-60
2022/08/09 03:35:14;;;;;;;5.00;2.30;;;23.30;50.20;;;;;;221370;1262;22601;-59
2022/08/09 03:40:36;;;;;;;5.60;2.10;;;23.30;50.10;;;;;;221320;1262;22528;-60
2022/08/09 03:45:42;;;;;;;5.20;2.50;;;23.30;50.20;;;;;;221311;1262;23987;-59
2022/08/09 03:51:08;;;;;;;5.90;2.20;;;23.30;50.60;;;;;;221302;1262;23925;-60
2022/08/09 03:56:30;;;;;;;4.90;2.30;;;23.20;50.00;;;;;;221183;1262;26525;-59
2022/08/09 04:01:34;;;;;;;5.60;2.60;;;23.20;50.50;;;;;;221448;1262;23051;-59
2022/08/09 04:06:38;;;;;;;8.60;2.30;;;23.20;50.60;;;;;;221515;1262;22555;-59
2022/08/09 04:12:04;;;;;;;3.30;2.10;;;23.20;50.80;;;;;;221259;1262;25630;-60
2022/08/09 04:17:06;;;;;;;;;;;23.20;50.60;;;;;;221490;1262;22650;-60
2022/08/09 04:22:09;;;;;;;6.30;2.90;;;23.20;51.10;;;;;;221546;1262;22587;-61
2022/08/09 04:27:14;;;;;;;4.00;2.40;;;23.10;50.90;;;;;;221440;1262;23029;-59
2022/08/09 04:32:17;;;;;;;4.60;1.90;;;23.10;51.00;;;;;;221263;1262;25361;-60
2022/08/09 04:37:36;;;;;;;4.50;2.30;;;23.20;51.20;;;;;;221127;1265;24064;-63
2022/08/09 04:42:48;;;;;;;3.40;2.20;;;23.20;51.50;;;;;;221157;1265;24299;-63
2022/08/09 04:47:50;;;;;;;4.90;2.70;;;23.20;51.30;;;;;;221265;1262;25512;-63
2022/08/09 04:53:06;;;;;;;3.90;2.20;;;23.20;51.30;;;;;;217485;1262;5044509;-61
2022/08/09 04:58:14;;;;;;;4.00;2.10;;;23.20;51.50;;;;;;221664;1262;22562;-60
2022/08/09 05:03:17;;;;;;;5.90;2.80;;;23.20;51.60;;;;;;221388;1262;22684;-62
2022/08/09 05:08:40;;;;;;;6.40;2.00;;;23.20;51.00;;;;;;221321;1262;22550;-60
2022/08/09 05:13:46;;;;;;;3.60;2.20;;;23.20;51.70;;;;;;221243;1262;23853;-60
2022/08/09 05:18:50;;;;;;;4.20;2.00;;;23.30;51.90;;;;;;221330;1262;22688;-59
2022/08/09 05:24:01;;;;;;;3.40;2.20;;;23.30;52.10;;;;;;221575;1262;22547;-60
2022/08/09 05:29:06;;;;;;;4.00;2.40;;;23.20;52.90;;;;;;221624;1262;22553;-59
2022/08/09 05:34:19;;;;;;;4.20;2.20;;;23.30;52.30;;;;;;221302;1262;22562;-60
2022/08/09 05:39:22;;;;;;;10.20;3.20;;;23.20;52.70;;;;;;221332;1262;24205;-61
2022/08/09 05:44:32;;;;;;;4.70;2.30;;;23.20;52.50;;;;;;221299;1262;22541;-61
2022/08/09 05:49:39;;;;;;;6.00;2.40;;;23.30;53.00;;;;;;221465;1262;26113;-59
2022/08/09 05:55:01;;;;;;;4.80;2.50;;;23.30;53.50;;;;;;221418;1261;24210;-61
2022/08/09 06:00:12;;;;;;;5.40;2.70;;;23.30;53.50;;;;;;221332;1262;23039;-58
2022/08/09 06:05:14;;;;;;;4.70;2.20;;;23.30;54.10;;;;;;221354;1262;24481;-59
2022/08/09 06:10:17;;;;;;;5.40;2.20;;;23.20;54.20;;;;;;221516;1262;25358;-59
2022/08/09 06:15:23;;;;;;;5.20;2.40;;;23.20;54.80;;;;;;221380;1262;25536;-60
2022/08/09 06:20:28;;;;;;;4.60;2.20;;;23.30;54.30;;;;;;221651;1262;22593;-62
2022/08/09 06:25:31;;;;;;;6.50;2.50;;;23.40;53.20;;;;;;220938;1265;22541;-61
2022/08/09 06:30:36;;;;;;;5.30;2.50;;;23.40;53.30;;;;;;221374;1262;22533;-60
2022/08/09 06:35:38;;;;;;;5.90;2.40;;;23.50;53.40;;;;;;221502;1262;24261;-63
2022/08/09 06:40:59;;;;;;;6.70;2.70;;;23.50;53.20;;;;;;221200;1262;22811;-61
2022/08/09 06:46:05;;;;;;;5.10;2.20;;;23.50;53.30;;;;;;221263;1265;25328;-62
2022/08/09 06:51:14;;;;;;;6.80;2.50;;;23.50;53.10;;;;;;221168;1265;22544;-60
2022/08/09 06:56:21;;;;;;;5.20;2.60;;;23.50;52.90;;;;;;221245;1265;24244;-61
2022/08/09 07:01:35;;;;;;;4.00;2.30;;;23.60;53.40;;;;;;220946;1265;22532;-62
2022/08/09 07:06:58;;;;;;;5.20;2.00;;;23.60;52.70;;;;;;221126;1262;22551;-62
2022/08/09 07:12:02;;;;;;;7.00;3.50;;;23.60;52.60;;;;;;221432;1262;25324;-61
2022/08/09 07:17:06;;;;;;;5.10;2.90;;;23.60;53.90;;;;;;221455;1262;25450;-62
2022/08/09 07:22:09;;;;;;;4.30;2.40;;;23.60;56.40;;;;;;221379;1262;25330;-62
2022/08/09 07:27:13;;;;;;;5.10;2.40;;;23.70;56.40;;;;;;221297;1262;25273;-63
2022/08/09 07:32:35;;;;;;;5.90;2.70;;;23.70;55.80;;;;;;221343;1262;25612;-61
2022/08/09 07:37:43;;;;;;;5.50;2.50;;;23.70;54.90;;;;;;221540;1264;25302;-65
2022/08/09 07:42:57;;;;;;;4.40;2.50;;;23.80;53.80;;;;;;221732;1262;22530;-61
2022/08/09 07:47:59;;;;;;;4.70;2.40;;;23.80;53.60;;;;;;221219;1262;25469;-59
2022/08/09 07:53:06;;;;;;;3.70;2.60;;;23.80;53.50;;;;;;221160;1265;23162;-61
2022/08/09 07:58:09;;;;;;;4.50;2.60;;;23.80;53.30;;;;;;221341;1262;23930;-59
2022/08/09 08:03:17;;;;;;;5.60;2.50;;;23.80;52.90;;;;;;221156;1262;22564;-65
2022/08/09 08:08:19;;;;;;;6.40;2.50;;;23.90;53.70;;;;;;221326;1262;24217;-63
2022/08/09 08:13:42;;;;;;;6.80;2.80;;;23.90;53.30;;;;;;221260;1262;25182;-60
2022/08/09 08:18:59;;;;;;;8.50;3.00;;;23.90;53.40;;;;;;221466;1262;22544;-61
2022/08/09 08:24:05;;;;;;;5.20;2.40;;;23.90;53.10;;;;;;221261;1262;22539;-62
2022/08/09 08:29:13;;;;;;;6.40;2.90;;;24.00;54.50;;;;;;221189;1262;24215;-61
2022/08/09 08:34:24;;;;;;;7.60;2.40;;;24.00;54.60;;;;;;221466;1265;24578;-62
2022/08/09 08:39:27;;;;;;;5.30;2.30;;;24.10;54.30;;;;;;221208;1262;22564;-62
2022/08/09 08:44:46;;;;;;;3.40;2.30;;;24.10;54.20;;;;;;221231;1262;22838;-64
2022/08/09 08:49:49;;;;;;;4.80;2.30;;;24.10;54.20;;;;;;221294;1262;23837;-63
2022/08/09 08:54:57;;;;;;;5.40;2.40;;;24.10;53.60;;;;;;221303;1262;24292;-62
2022/08/09 08:59:59;;;;;;;3.80;2.70;;;24.10;53.40;;;;;;221385;1262;22551;-60
2022/08/09 09:05:07;;;;;;;4.50;2.60;;;24.10;53.30;;;;;;221451;1262;22660;-58
2022/08/09 09:10:14;;;;;;;5.60;2.50;;;24.10;53.40;;;;;;221419;1262;24374;-60
2022/08/09 09:15:17;;;;;;;3.90;2.50;;;24.10;53.10;;;;;;221596;1262;22567;-63
2022/08/09 09:20:37;;;;;;;4.00;2.00;;;24.20;53.20;;;;;;221379;1262;25345;-62
2022/08/09 09:25:47;;;;;;;7.30;3.10;;;24.20;53.40;;;;;;221065;1265;22557;-62
2022/08/09 09:31:18;;;;;;;4.70;2.40;;;24.20;52.90;;;;;;221268;1265;23009;-60
2022/08/09 09:36:41;;;;;;;3.30;1.80;;;24.30;53.00;;;;;;220912;1262;23626;-61
2022/08/09 09:41:57;;;;;;;4.50;2.20;;;24.30;52.80;;;;;;221216;1262;25335;-60
2022/08/09 09:47:15;;;;;;;4.80;2.00;;;24.30;53.00;;;;;;221552;1262;25512;-61
2022/08/09 09:52:18;;;;;;;5.00;2.20;;;24.40;52.20;;;;;;221278;1262;22690;-59
2022/08/09 09:57:57;;;;;;;4.40;2.60;;;24.40;52.50;;;;;;221396;1262;25190;-61
2022/08/09 10:03:06;;;;;;;4.70;1.80;;;24.40;52.30;;;;;;221394;1262;24293;-60
2022/08/09 10:08:22;;;;;;;4.00;2.40;;;24.50;52.30;;;;;;221385;1263;22577;-63
2022/08/09 10:13:39;;;;;;;3.90;2.10;;;24.50;52.20;;;;;;221397;1262;22553;-63
2022/08/09 10:18:54;;;;;;;4.00;2.20;;;24.50;52.10;;;;;;221458;1262;24175;-61
2022/08/09 10:24:03;;;;;;;3.40;2.20;;;24.60;52.40;;;;;;221206;1263;25292;-62
2022/08/09 10:29:06;;;;;;;3.70;2.30;;;24.60;52.00;;;;;;221447;1262;22541;-60
2022/08/09 10:34:29;;;;;;;3.40;2.10;;;24.70;51.90;;;;;;221450;1262;26496;-62
2022/08/09 10:39:39;;;;;;;5.30;2.20;;;24.70;52.20;;;;;;221527;1262;22544;-62
2022/08/09 10:45:13;;;;;;;4.30;2.20;;;24.70;51.70;;;;;;221682;1262;23909;-60
2022/08/09 10:56:15;;;;;;;2.70;1.70;;;24.80;52.20;;;;;;221470;1262;24064;-60
2022/08/09 11:01:30;;;;;;;3.70;1.90;;;24.90;51.80;;;;;;221323;1262;22630;-64
2022/08/09 11:06:59;;;;;;;6.10;2.40;;;24.90;51.50;;;;;;221426;1263;25492;-60
2022/08/09 11:12:11;;;;;;;4.80;2.10;;;24.90;51.70;;;;;;221549;1262;25038;-61
2022/08/09 11:17:14;;;;;;;3.30;2.00;;;24.90;51.30;;;;;;221190;1262;22531;-61
2022/08/09 11:22:44;;;;;;;5.00;2.20;;;25.00;51.30;;;;;;221417;1262;24350;-59
2022/08/09 11:27:49;;;;;;;3.10;2.10;;;25.00;51.20;;;;;;221432;1262;22579;-61
2022/08/09 11:33:17;;;;;;;2.90;2.00;;;25.00;51.20;;;;;;221212;1263;22660;-60
2022/08/09 11:38:24;;;;;;;3.10;2.00;;;25.10;51.10;;;;;;221490;1262;24442;-58
2022/08/09 11:43:34;;;;;;;4.60;1.80;;;25.10;51.10;;;;;;221394;1262;25235;-62
2022/08/09 11:48:53;;;;;;;2.30;1.60;;;25.10;51.00;;;;;;221377;1262;22542;-59
2022/08/09 11:54:17;;;;;;;3.70;1.70;;;25.10;51.00;;;;;;221329;1262;22563;-59
2022/08/09 11:59:35;;;;;;;2.80;1.80;;;25.20;51.00;;;;;;221390;1264;22557;-61
2022/08/09 12:04:39;;;;;;;2.90;1.80;;;25.20;50.90;;;;;;221403;1262;22544;-61
2022/08/09 12:09:48;;;;;;;2.60;1.70;;;25.20;50.90;;;;;;221405;1262;22593;-62
2022/08/09 12:14:53;;;;;;;4.00;2.10;;;25.30;50.90;;;;;;221006;1265;22560;-62
2022/08/09 12:20:13;;;;;;;2.40;1.60;;;25.30;50.90;;;;;;221249;1262;22573;-61
2022/08/09 12:25:26;;;;;;;3.20;1.80;;;25.30;50.80;;;;;;221108;1262;22802;-62
2022/08/09 12:30:41;;;;;;;3.10;1.80;;;25.30;50.70;;;;;;221222;1265;24264;-59
2022/08/09 12:35:50;;;;;;;3.40;1.70;;;25.40;50.70;;;;;;221290;1262;22653;-64
2022/08/09 12:40:52;;;;;;;4.90;1.80;;;25.40;50.60;;;;;;221574;1262;22713;-61
2022/08/09 12:45:57;;;;;;;4.80;2.00;;;25.50;50.70;;;;;;221401;1263;24293;-61
2022/08/09 12:51:03;;;;;;;3.70;1.80;;;25.40;50.60;;;;;;221431;1262;25294;-61
2022/08/09 12:56:26;;;;;;;4.40;1.80;;;25.50;51.10;;;;;;221497;1262;26770;-62
2022/08/09 13:01:58;;;;;;;3.80;2.00;;;25.60;51.30;;;;;;221370;1262;25393;-62
2022/08/09 13:07:15;;;;;;;4.90;2.00;;;25.60;51.00;;;;;;221284;1261;22670;-61
2022/08/09 13:12:17;;;;;;;3.60;2.00;;;25.60;50.60;;;;;;221454;1262;25362;-60
2022/08/09 13:17:21;;;;;;;3.00;1.70;;;25.60;50.90;;;;;;221485;1262;25253;-62
2022/08/09 13:22:54;;;;;;;3.00;2.00;;;25.60;50.50;;;;;;221373;1262;24251;-60
2022/08/09 13:28:20;;;;;;;3.20;1.90;;;25.60;50.50;;;;;;221428;1262;23020;-61
2022/08/09 13:33:39;;;;;;;5.30;2.20;;;25.70;50.50;;;;;;221370;1262;24159;-59
2022/08/09 13:38:59;;;;;;;4.00;2.10;;;25.70;50.50;;;;;;221348;1262;24249;-61
2022/08/09 13:44:29;;;;;;;4.60;2.00;;;25.70;50.50;;;;;;221063;1265;25432;-61
2022/08/09 13:49:33;;;;;;;5.10;2.40;;;25.70;50.60;;;;;;221382;1262;26499;-61
2022/08/09 13:54:57;;;;;;;4.00;2.10;;;25.70;51.00;;;;;;221250;1262;25754;-61
2022/08/09 14:00:12;;;;;;;5.50;2.10;;;25.70;50.60;;;;;;221189;1267;22522;-61
2022/08/09 14:05:15;;;;;;;3.40;1.70;;;25.60;50.60;;;;;;221096;1262;25299;-61
2022/08/09 14:10:37;;;;;;;2.80;1.80;;;25.60;50.90;;;;;;221142;1263;25291;-62
2022/08/09 14:15:57;;;;;;;3.30;1.60;;;25.60;50.60;;;;;;221442;1262;25366;-60
2022/08/09 14:21:16;;;;;;;4.20;2.00;;;25.60;50.60;;;;;;221514;1262;22530;-62
2022/08/09 14:26:27;;;;;;;7.00;1.70;;;25.60;50.60;;;;;;221231;1263;22547;-61
2022/08/09 14:31:38;;;;;;;3.20;2.00;;;25.60;50.50;;;;;;220887;1265;22559;-60
2022/08/09 14:36:54;;;;;;;3.70;1.90;;;25.60;50.50;;;;;;221087;1264;23919;-60
2022/08/09 14:41:56;;;;;;;2.60;1.40;;;25.50;50.70;;;;;;221481;1265;22538;-61
2022/08/09 14:47:05;;;;;;;2.90;1.90;;;25.60;50.50;;;;;;221458;1265;25490;-61
2022/08/09 14:52:31;;;;;;;3.80;2.10;;;25.60;50.20;;;;;;221067;1265;22552;-62
2022/08/09 14:57:33;;;;;;;3.30;1.70;;;25.60;50.50;;;;;;221216;1265;23111;-63
2022/08/09 15:02:45;;;;;;;2.70;1.50;;;25.50;50.70;;;;;;221421;1264;25277;-61
2022/08/09 15:07:54;;;;;;;3.10;1.90;;;25.60;50.50;;;;;;221492;1265;24380;-64
2022/08/09 15:13:02;;;;;;;2.50;1.70;;;25.50;50.50;;;;;;221166;1262;22638;-61
2022/08/09 15:18:06;;;;;;;11.30;3.50;;;25.60;50.80;;;;;;221248;1265;22754;-62
2022/08/09 15:23:10;;;;;;;3.10;1.70;;;25.50;50.40;;;;;;221564;1265;25416;-60
2022/08/09 15:28:32;;;;;;;4.70;2.30;;;25.50;50.90;;;;;;221177;1265;25363;-61
2022/08/09 15:33:35;;;;;;;2.80;1.70;;;25.50;50.50;;;;;;221477;1265;25371;-61
2022/08/09 15:38:58;;;;;;;2.90;1.70;;;25.50;50.50;;;;;;221053;1265;24860;-61
2022/08/09 15:44:04;;;;;;;2.50;1.70;;;25.50;50.80;;;;;;221192;1265;22526;-64
2022/08/09 15:49:07;;;;;;;2.40;1.70;;;25.50;50.50;;;;;;220952;1266;22963;-61
2022/08/09 15:54:25;;;;;;;3.50;1.70;;;25.60;50.60;;;;;;221184;1267;25315;-61
2022/08/09 15:59:44;;;;;;;2.20;1.70;;;25.50;50.50;;;;;;221069;1265;22556;-63
2022/08/09 16:04:53;;;;;;;2.20;1.50;;;25.50;50.50;;;;;;221171;1265;25496;-61
2022/08/09 16:09:55;;;;;;;3.90;1.90;;;25.50;50.80;;;;;;221229;1265;22531;-60
2022/08/09 16:15:09;;;;;;;2.90;1.70;;;25.50;50.50;;;;;;221217;1264;24288;-60
2022/08/09 16:20:31;;;;;;;3.00;1.70;;;25.50;50.60;;;;;;220985;1265;22552;-61
2022/08/09 16:25:33;;;;;;;3.40;1.80;;;25.50;50.60;;;;;;221249;1265;25361;-61
2022/08/09 16:30:42;;;;;;;2.80;1.80;;;25.50;50.70;;;;;;221279;1265;24208;-60
2022/08/09 16:36:01;;;;;;;3.50;1.80;;;25.50;50.40;;;;;;221158;1265;25384;-61
2022/08/09 16:41:17;;;;;;;3.30;1.90;;;25.50;50.40;;;;;;221372;1264;25470;-60
2022/08/09 16:46:26;;;;;;;2.60;1.60;;;25.40;50.40;;;;;;221286;1262;22760;-64
2022/08/09 16:51:30;;;;;;;2.70;1.80;;;25.40;50.40;;;;;;221585;1262;25273;-60
2022/08/09 16:56:34;;;;;;;2.30;1.70;;;25.40;50.40;;;;;;217943;1262;4508339;-61
2022/08/09 17:01:39;;;;;;;3.50;1.90;;;25.40;50.80;;;;;;221335;1262;22529;-61
2022/08/09 17:06:52;;;;;;;2.80;1.80;;;25.40;51.00;;;;;;221223;1261;22824;-61
2022/08/09 17:12:14;;;;;;;3.20;1.80;;;25.40;50.40;;;;;;221559;1265;24208;-60
2022/08/09 17:17:17;;;;;;;3.10;2.10;;;25.40;50.40;;;;;;221234;1265;22592;-61
2022/08/09 17:22:29;;;;;;;3.10;2.00;;;25.40;50.50;;;;;;221244;1265;24401;-61
2022/08/09 17:27:52;;;;;;;2.60;1.80;;;25.40;50.50;;;;;;221354;1262;25238;-62
2022/08/09 17:32:57;;;;;;;2.20;1.60;;;25.40;50.50;;;;;;221432;1265;25384;-61
2022/08/09 17:38:20;;;;;;;2.70;1.80;;;25.40;50.80;;;;;;221305;1265;24286;-61
2022/08/09 17:43:34;;;;;;;2.60;1.70;;;25.40;50.90;;;;;;221516;1265;22516;-62
2022/08/09 17:48:40;;;;;;;5.10;2.10;;;25.40;50.60;;;;;;221425;1262;26491;-60
2022/08/09 17:53:54;;;;;;;3.10;1.90;;;25.40;50.80;;;;;;221465;1264;23962;-61
2022/08/09 17:59:00;;;;;;;2.70;1.60;;;25.40;50.80;;;;;;221276;1262;26459;-60
2022/08/09 18:04:02;;;;;;;2.40;1.80;;;25.40;50.90;;;;;;221431;1262;22706;-61
2022/08/09 18:09:08;;;;;;;2.60;1.60;;;25.40;50.50;;;;;;221256;1262;22534;-56
2022/08/09 18:14:15;;;;;;;2.90;2.10;;;25.40;50.60;;;;;;221575;1262;24290;-62
2022/08/09 18:19:19;;;;;;;2.50;1.40;;;25.30;50.50;;;;;;221247;1262;23895;-60
2022/08/09 18:24:42;;;;;;;1.80;1.30;;;25.40;50.90;;;;;;221131;1262;22544;-61
2022/08/09 18:29:47;;;;;;;4.50;1.80;;;25.30;50.70;;;;;;221173;1262;22558;-62
2022/08/09 18:35:12;;;;;;;3.10;1.70;;;25.30;50.60;;;;;;221391;1262;24135;-61
2022/08/09 18:40:17;;;;;;;3.20;1.80;;;25.30;50.70;;;;;;221745;1262;23846;-61
2022/08/09 18:45:28;;;;;;;3.00;1.70;;;25.30;51.10;;;;;;221319;1262;22642;-60
2022/08/09 18:50:55;;;;;;;2.50;1.50;;;25.30;50.70;;;;;;221333;1262;26554;-62
2022/08/09 18:55:58;;;;;;;2.90;1.80;;;25.30;51.20;;;;;;221189;1262;25293;-60
2022/08/09 19:01:07;;;;;;;2.70;1.60;;;25.20;50.70;;;;;;221489;1265;24202;-62
2022/08/09 19:06:09;;;;;;;3.10;1.70;;;25.30;50.70;;;;;;221254;1262;22547;-61
2022/08/09 19:11:17;;;;;;;2.20;1.50;;;25.20;50.70;;;;;;221057;1265;22547;-61
2022/08/09 19:16:24;;;;;;;2.80;1.80;;;25.30;50.80;;;;;;221502;1262;22534;-60
2022/08/09 19:21:38;;;;;;;2.30;1.80;;;25.30;50.90;;;;;;221587;1262;24297;-62
2022/08/09 19:27:04;;;;;;;3.80;2.00;;;25.20;50.80;;;;;;221548;1262;22633;-61
2022/08/09 19:32:07;;;;;;;2.40;1.80;;;25.20;50.80;;;;;;221427;1264;22595;-62
2022/08/09 19:37:10;;;;;;;2.70;2.00;;;25.20;50.90;;;;;;221255;1262;22529;-60
2022/08/09 19:42:21;;;;;;;3.60;1.80;;;25.20;50.90;;;;;;221355;1261;24521;-62
2022/08/09 19:47:43;;;;;;;3.20;1.90;;;25.20;50.80;;;;;;221519;1262;22697;-62
2022/08/09 19:52:49;;;;;;;2.10;1.50;;;25.20;50.80;;;;;;221550;1262;22530;-61
2022/08/09 19:57:57;;;;;;;2.80;2.00;;;25.20;51.00;;;;;;221090;1262;22724;-61
2022/08/09 20:03:24;;;;;;;3.70;2.20;;;25.20;51.00;;;;;;221367;1262;24353;-61
2022/08/09 20:08:56;;;;;;;3.50;1.80;;;25.20;51.00;;;;;;221366;1261;24659;-62
2022/08/09 20:14:15;;;;;;;2.90;1.90;;;25.20;51.00;;;;;;221473;1265;24381;-61
2022/08/09 20:19:32;;;;;;;3.50;2.10;;;25.20;51.00;;;;;;221555;1262;22566;-62
2022/08/09 20:24:58;;;;;;;2.80;1.70;;;25.10;50.90;;;;;;221501;1263;24365;-61
2022/08/09 20:30:13;;;;;;;3.10;2.10;;;25.10;51.00;;;;;;221541;1262;25359;-60
2022/08/09 20:35:21;;;;;;;2.70;2.00;;;25.10;51.00;;;;;;221134;1262;22640;-59
2022/08/09 20:40:32;;;;;;;4.00;2.30;;;25.10;51.30;;;;;;221560;1263;25245;-61
2022/08/09 20:45:48;;;;;;;2.80;2.00;;;25.10;51.00;;;;;;221304;1262;22552;-61
2022/08/09 20:51:14;;;;;;;3.00;1.90;;;25.10;51.00;;;;;;221608;1262;22525;-61
2022/08/09 20:56:22;;;;;;;3.50;1.60;;;25.10;51.10;;;;;;221626;1262;22536;-60
2022/08/09 21:01:35;;;;;;;2.50;1.60;;;25.10;51.00;;;;;;221362;1262;24354;-62
2022/08/09 21:06:55;;;;;;;3.40;1.90;;;25.10;51.00;;;;;;221467;1262;22726;-61
2022/08/09 21:12:52;;;;;;;3.40;1.90;;;25.10;51.10;;;;;;221072;1265;22563;-61
2022/08/09 21:18:21;;;;;;;2.90;1.90;;;25.10;51.10;;;;;;221336;1262;22707;-62
2022/08/09 21:23:33;;;;;;;3.10;1.90;;;25.10;51.10;;;;;;221361;1262;25312;-62
2022/08/09 21:29:00;;;;;;;3.50;1.70;;;25.10;51.50;;;;;;221181;1262;22526;-61
2022/08/09 21:34:14;;;;;;;2.60;1.80;;;25.10;51.10;;;;;;221288;1262;22601;-61
2022/08/09 21:39:31;;;;;;;3.00;1.80;;;25.10;51.20;;;;;;221220;1262;22531;-60
2022/08/09 21:44:44;;;;;;;2.50;1.70;;;25.00;51.20;;;;;;221433;1262;23902;-61
2022/08/09 21:49:48;;;;;;;3.00;1.80;;;25.00;51.40;;;;;;221377;1262;22602;-61
2022/08/09 21:54:53;;;;;;;2.80;2.00;;;25.00;51.20;;;;;;221511;1261;24218;-61
2022/08/09 22:00:11;;;;;;;3.60;1.70;;;25.00;51.20;;;;;;221163;1262;23077;-61
2022/08/09 22:05:17;;;;;;;2.70;1.60;;;25.00;51.30;;;;;;221332;1262;24074;-61
2022/08/09 22:10:25;;;;;;;3.40;1.70;;;25.00;51.60;;;;;;221309;1262;22580;-61
2022/08/09 22:15:28;;;;;;;2.60;1.70;;;25.00;51.30;;;;;;221373;1262;23019;-62
2022/08/09 22:20:38;;;;;;;4.20;2.20;;;25.00;51.30;;;;;;221389;1262;22613;-60
2022/08/09 22:25:41;;;;;;;1.90;1.50;;;25.00;51.40;;;;;;221382;1262;22631;-63
2022/08/09 22:31:03;;;;;;;3.10;1.90;;;25.00;51.60;;;;;;221306;1265;25235;-63
2022/08/09 22:36:06;;;;;;;3.10;1.70;;;24.90;51.30;;;;;;221188;1265;22541;-65
2022/08/09 22:41:10;;;;;;;5.40;1.80;;;24.90;51.30;;;;;;221187;1265;22707;-62
2022/08/09 22:46:14;;;;;;;3.50;1.90;;;24.90;51.30;;;;;;221362;1262;24398;-63
2022/08/09 22:51:39;;;;;;;3.10;2.00;;;24.90;51.40;;;;;;221436;1261;22682;-61
2022/08/09 22:57:02;;;;;;;3.30;2.00;;;24.90;51.30;;;;;;221245;1262;22544;-62
2022/08/09 23:02:05;;;;;;;3.50;1.80;;;24.90;51.30;;;;;;221261;1265;25245;-61
2022/08/09 23:12:48;;;;;;;3.50;2.30;;;24.90;51.70;;;;;;221013;1265;24405;-61
2022/08/09 23:17:51;;;;;;;2.60;1.70;;;24.90;51.70;;;;;;220976;1265;22537;-61
2022/08/09 23:22:53;;;;;;;3.10;2.00;;;24.90;51.40;;;;;;221088;1265;25362;-61
2022/08/09 23:27:59;;;;;;;2.60;2.00;;;24.90;51.40;;;;;;221102;1265;25413;-61
2022/08/09 23:33:20;;;;;;;2.70;2.00;;;24.90;51.80;;;;;;221195;1265;23966;-61
2022/08/09 23:38:22;;;;;;;3.20;1.80;;;24.90;51.70;;;;;;221288;1262;23944;-61
2022/08/09 23:43:25;;;;;;;4.10;2.30;;;24.80;51.70;;;;;;221222;1262;22554;-61
2022/08/09 23:48:27;;;;;;;2.80;1.70;;;24.90;51.50;;;;;;221287;1261;25232;-61
2022/08/09 23:53:29;;;;;;;2.50;1.70;;;24.80;51.40;;;;;;221401;1262;22607;-61
2022/08/09 23:58:38;;;;;;;4.20;1.90;;;24.80;51.50;;;;;;221315;1265;22788;-61
